sensor_id;sensor_type;location;lat;lon;timestamp;P1;durP1;ratioP1;P2;durP2;ratioP2
21438;SDS011;10880;50.302;18.736;2023-08-17T00:00:12;2.88;;;2.60;;
21438;SDS011;10880;50.302;18.736;2023-08-17T00:02:40;2.60;;;2.40;;
21438;SDS011;10880;50.302;18.736;2023-08-17T00:05:07;2.40;;;2.20;;
21438;SDS011;10880;50.302;18.736;2023-08-17T00:07:35;2.63;;;2.42;;
21438;SDS011;10880;50.302;18.736;2023-08-17T00:10:02;3.03;;;2.33;;
21438;SDS011;10880;50.302;18.736;2023-08-17T00:12:29;2.33;;;2.13;;
21438;SDS011;10880;50.302;18.736;2023-08-17T00:14:56;2.47;;;2.25;;
21438;SDS011;10880;50.302;18.736;2023-08-17T00:17:23;2.50;;;2.30;;
21438;SDS011;10880;50.302;18.736;2023-08-17T00:19:49;2.17;;;1.98;;
21438;SDS011;10880;50.302;18.736;2023-08-17T00:22:16;2.40;;;2.20;;
21438;SDS011;10880;50.302;18.736;2023-08-17T00:24:43;2.22;;;2.03;;
21438;SDS011;10880;50.302;18.736;2023-08-17T00:27:11;2.10;;;1.95;;
21438;SDS011;10880;50.302;18.736;2023-08-17T00:29:39;2.17;;;2.00;;
21438;SDS011;10880;50.302;18.736;2023-08-17T00:32:06;1.85;;;1.75;;
21438;SDS011;10880;50.302;18.736;2023-08-17T00:34:35;2.13;;;2.00;;
21438;SDS011;10880;50.302;18.736;2023-08-17T00:37:02;2.10;;;1.90;;
21438;SDS011;10880;50.302;18.736;2023-08-17T00:39:28;2.30;;;2.10;;
21438;SDS011;10880;50.302;18.736;2023-08-17T00:41:56;2.00;;;1.80;;
21438;SDS011;10880;50.302;18.736;2023-08-17T00:44:23;2.13;;;2.03;;
21438;SDS011;10880;50.302;18.736;2023-08-17T00:46:49;3.70;;;1.83;;
21438;SDS011;10880;50.302;18.736;2023-08-17T00:49:18;2.10;;;1.90;;
21438;SDS011;10880;50.302;18.736;2023-08-17T00:51:45;1.73;;;1.63;;
21438;SDS011;10880;50.302;18.736;2023-08-17T00:54:11;2.10;;;1.90;;
21438;SDS011;10880;50.302;18.736;2023-08-17T00:56:38;2.15;;;1.95;;
21438;SDS011;10880;50.302;18.736;2023-08-17T00:59:04;2.30;;;2.10;;
21438;SDS011;10880;50.302;18.736;2023-08-17T01:01:31;2.10;;;1.90;;
21438;SDS011;10880;50.302;18.736;2023-08-17T01:03:58;2.00;;;1.90;;
21438;SDS011;10880;50.302;18.736;2023-08-17T01:06:25;1.98;;;1.88;;
21438;SDS011;10880;50.302;18.736;2023-08-17T01:08:53;1.95;;;1.85;;
21438;SDS011;10880;50.302;18.736;2023-08-17T01:11:28;2.35;;;1.90;;
21438;SDS011;10880;50.302;18.736;2023-08-17T01:17:00;3.33;;;1.88;;
21438;SDS011;10880;50.302;18.736;2023-08-17T01:19:49;1.70;;;1.60;;
21438;SDS011;10880;50.302;18.736;2023-08-17T01:22:17;2.22;;;2.03;;
21438;SDS011;10880;50.302;18.736;2023-08-17T01:24:47;1.85;;;1.75;;
21438;SDS011;10880;50.302;18.736;2023-08-17T01:27:14;2.55;;;2.00;;
21438;SDS011;10880;50.302;18.736;2023-08-17T01:29:41;1.80;;;1.70;;
21438;SDS011;10880;50.302;18.736;2023-08-17T01:32:27;2.15;;;1.95;;
21438;SDS011;10880;50.302;18.736;2023-08-17T01:35:09;1.98;;;1.80;;
21438;SDS011;10880;50.302;18.736;2023-08-17T01:37:53;1.75;;;1.65;;
21438;SDS011;10880;50.302;18.736;2023-08-17T01:40:28;1.90;;;1.80;;
21438;SDS011;10880;50.302;18.736;2023-08-17T01:42:58;2.20;;;2.00;;
21438;SDS011;10880;50.302;18.736;2023-08-17T01:45:26;1.98;;;1.88;;
21438;SDS011;10880;50.302;18.736;2023-08-17T01:47:54;2.53;;;1.70;;
21438;SDS011;10880;50.302;18.736;2023-08-17T01:50:22;2.03;;;1.90;;
21438;SDS011;10880;50.302;18.736;2023-08-17T01:52:49;2.20;;;1.90;;
21438;SDS011;10880;50.302;18.736;2023-08-17T01:55:20;1.92;;;1.73;;
21438;SDS011;10880;50.302;18.736;2023-08-17T01:57:47;2.00;;;1.90;;
21438;SDS011;10880;50.302;18.736;2023-08-17T02:00:14;1.80;;;1.70;;
21438;SDS011;10880;50.302;18.736;2023-08-17T02:02:40;1.70;;;1.60;;
21438;SDS011;10880;50.302;18.736;2023-08-17T02:05:08;1.90;;;1.80;;
21438;SDS011;10880;50.302;18.736;2023-08-17T02:07:37;2.05;;;1.88;;
21438;SDS011;10880;50.302;18.736;2023-08-17T02:10:05;2.03;;;1.83;;
21438;SDS011;10880;50.302;18.736;2023-08-17T02:12:32;2.08;;;1.98;;
21438;SDS011;10880;50.302;18.736;2023-08-17T02:14:58;1.90;;;1.80;;
21438;SDS011;10880;50.302;18.736;2023-08-17T02:17:24;1.80;;;1.70;;
21438;SDS011;10880;50.302;18.736;2023-08-17T02:19:52;1.90;;;1.80;;
21438;SDS011;10880;50.302;18.736;2023-08-17T02:22:19;1.77;;;1.67;;
21438;SDS011;10880;50.302;18.736;2023-08-17T02:24:46;1.90;;;1.80;;
21438;SDS011;10880;50.302;18.736;2023-08-17T02:27:14;1.70;;;1.60;;
21438;SDS011;10880;50.302;18.736;2023-08-17T02:29:41;2.10;;;1.90;;
21438;SDS011;10880;50.302;18.736;2023-08-17T02:32:08;1.77;;;1.67;;
21438;SDS011;10880;50.302;18.736;2023-08-17T02:34:34;1.95;;;1.85;;
21438;SDS011;10880;50.302;18.736;2023-08-17T02:37:01;2.10;;;1.90;;
21438;SDS011;10880;50.302;18.736;2023-08-17T02:39:28;2.10;;;1.90;;
21438;SDS011;10880;50.302;18.736;2023-08-17T02:41:58;2.25;;;2.05;;
21438;SDS011;10880;50.302;18.736;2023-08-17T02:44:26;1.98;;;1.88;;
21438;SDS011;10880;50.302;18.736;2023-08-17T02:46:54;1.80;;;1.70;;
21438;SDS011;10880;50.302;18.736;2023-08-17T02:49:21;2.25;;;2.05;;
21438;SDS011;10880;50.302;18.736;2023-08-17T02:51:47;2.50;;;2.20;;
21438;SDS011;10880;50.302;18.736;2023-08-17T02:54:14;2.40;;;2.20;;
21438;SDS011;10880;50.302;18.736;2023-08-17T02:56:40;3.03;;;2.45;;
21438;SDS011;10880;50.302;18.736;2023-08-17T02:59:06;2.47;;;2.28;;
21438;SDS011;10880;50.302;18.736;2023-08-17T03:01:35;2.42;;;2.22;;
21438;SDS011;10880;50.302;18.736;2023-08-17T03:04:04;4.32;;;2.22;;
21438;SDS011;10880;50.302;18.736;2023-08-17T03:06:30;2.57;;;2.30;;
21438;SDS011;10880;50.302;18.736;2023-08-17T03:08:57;2.20;;;2.00;;
21438;SDS011;10880;50.302;18.736;2023-08-17T03:11:23;3.10;;;2.30;;
21438;SDS011;10880;50.302;18.736;2023-08-17T03:13:52;2.90;;;2.60;;
21438;SDS011;10880;50.302;18.736;2023-08-17T03:16:28;2.70;;;2.50;;
21438;SDS011;10880;50.302;18.736;2023-08-17T03:18:59;3.17;;;2.50;;
21438;SDS011;10880;50.302;18.736;2023-08-17T03:21:26;2.40;;;2.20;;
21438;SDS011;10880;50.302;18.736;2023-08-17T03:23:52;2.60;;;2.40;;
21438;SDS011;10880;50.302;18.736;2023-08-17T03:26:19;2.83;;;2.22;;
21438;SDS011;10880;50.302;18.736;2023-08-17T03:28:45;2.50;;;2.30;;
21438;SDS011;10880;50.302;18.736;2023-08-17T03:31:11;2.22;;;2.03;;
21438;SDS011;10880;50.302;18.736;2023-08-17T03:33:38;2.33;;;2.15;;
21438;SDS011;10880;50.302;18.736;2023-08-17T03:36:06;2.40;;;2.20;;
21438;SDS011;10880;50.302;18.736;2023-08-17T03:38:32;2.45;;;2.25;;
21438;SDS011;10880;50.302;18.736;2023-08-17T03:40:59;2.75;;;2.38;;
21438;SDS011;10880;50.302;18.736;2023-08-17T03:43:29;2.63;;;2.43;;
21438;SDS011;10880;50.302;18.736;2023-08-17T03:45:57;2.30;;;2.10;;
21438;SDS011;10880;50.302;18.736;2023-08-17T03:48:24;2.28;;;2.15;;
21438;SDS011;10880;50.302;18.736;2023-08-17T03:50:51;2.30;;;2.10;;
21438;SDS011;10880;50.302;18.736;2023-08-17T03:53:18;2.42;;;2.22;;
21438;SDS011;10880;50.302;18.736;2023-08-17T03:55:46;2.25;;;2.08;;
21438;SDS011;10880;50.302;18.736;2023-08-17T03:58:14;2.53;;;2.33;;
21438;SDS011;10880;50.302;18.736;2023-08-17T04:00:42;2.40;;;2.20;;
21438;SDS011;10880;50.302;18.736;2023-08-17T04:03:08;2.33;;;2.13;;
21438;SDS011;10880;50.302;18.736;2023-08-17T04:05:35;2.58;;;2.38;;
21438;SDS011;10880;50.302;18.736;2023-08-17T04:08:02;2.30;;;2.10;;
21438;SDS011;10880;50.302;18.736;2023-08-17T04:10:29;2.50;;;2.30;;
21438;SDS011;10880;50.302;18.736;2023-08-17T04:12:58;2.25;;;2.05;;
21438;SDS011;10880;50.302;18.736;2023-08-17T04:15:25;2.38;;;2.17;;
21438;SDS011;10880;50.302;18.736;2023-08-17T04:17:52;2.17;;;1.98;;
21438;SDS011;10880;50.302;18.736;2023-08-17T04:20:18;2.00;;;1.90;;
21438;SDS011;10880;50.302;18.736;2023-08-17T04:22:45;2.17;;;2.00;;
21438;SDS011;10880;50.302;18.736;2023-08-17T04:25:13;2.27;;;2.07;;
21438;SDS011;10880;50.302;18.736;2023-08-17T04:27:39;1.95;;;1.85;;
21438;SDS011;10880;50.302;18.736;2023-08-17T04:30:06;2.30;;;2.08;;
21438;SDS011;10880;50.302;18.736;2023-08-17T04:32:44;1.93;;;1.83;;
21438;SDS011;10880;50.302;18.736;2023-08-17T04:35:16;1.92;;;1.83;;
21438;SDS011;10880;50.302;18.736;2023-08-17T04:37:45;2.03;;;1.83;;
21438;SDS011;10880;50.302;18.736;2023-08-17T04:40:13;1.87;;;1.77;;
21438;SDS011;10880;50.302;18.736;2023-08-17T04:42:41;2.20;;;2.00;;
21438;SDS011;10880;50.302;18.736;2023-08-17T04:45:08;1.75;;;1.65;;
21438;SDS011;10880;50.302;18.736;2023-08-17T04:47:39;1.80;;;1.70;;
21438;SDS011;10880;50.302;18.736;2023-08-17T04:50:06;1.80;;;1.70;;
21438;SDS011;10880;50.302;18.736;2023-08-17T04:52:34;1.80;;;1.70;;
21438;SDS011;10880;50.302;18.736;2023-08-17T04:55:02;1.52;;;1.42;;
21438;SDS011;10880;50.302;18.736;2023-08-17T04:57:31;1.70;;;1.60;;
21438;SDS011;10880;50.302;18.736;2023-08-17T04:59:59;1.65;;;1.55;;
21438;SDS011;10880;50.302;18.736;2023-08-17T05:02:25;1.50;;;1.40;;
21438;SDS011;10880;50.302;18.736;2023-08-17T05:04:52;1.60;;;1.50;;
21438;SDS011;10880;50.302;18.736;2023-08-17T05:07:19;1.58;;;1.48;;
21438;SDS011;10880;50.302;18.736;2023-08-17T05:09:46;1.50;;;1.40;;
21438;SDS011;10880;50.302;18.736;2023-08-17T05:12:12;1.60;;;1.47;;
21438;SDS011;10880;50.302;18.736;2023-08-17T05:14:39;1.60;;;1.50;;
21438;SDS011;10880;50.302;18.736;2023-08-17T05:17:06;1.67;;;1.58;;
21438;SDS011;10880;50.302;18.736;2023-08-17T05:19:33;2.10;;;1.60;;
21438;SDS011;10880;50.302;18.736;2023-08-17T05:22:00;2.20;;;2.00;;
21438;SDS011;10880;50.302;18.736;2023-08-17T05:24:27;6.77;;;1.90;;
21438;SDS011;10880;50.302;18.736;2023-08-17T05:26:54;1.60;;;1.50;;
21438;SDS011;10880;50.302;18.736;2023-08-17T05:29:21;1.73;;;1.63;;
21438;SDS011;10880;50.302;18.736;2023-08-17T05:31:48;1.70;;;1.60;;
21438;SDS011;10880;50.302;18.736;2023-08-17T05:34:14;1.80;;;1.70;;
21438;SDS011;10880;50.302;18.736;2023-08-17T05:36:41;2.28;;;1.70;;
21438;SDS011;10880;50.302;18.736;2023-08-17T05:39:08;1.63;;;1.53;;
21438;SDS011;10880;50.302;18.736;2023-08-17T05:41:35;1.90;;;1.70;;
21438;SDS011;10880;50.302;18.736;2023-08-17T05:44:03;1.80;;;1.70;;
21438;SDS011;10880;50.302;18.736;2023-08-17T05:46:33;1.70;;;1.60;;
21438;SDS011;10880;50.302;18.736;2023-08-17T05:49:00;1.77;;;1.50;;
21438;SDS011;10880;50.302;18.736;2023-08-17T05:51:28;1.70;;;1.60;;
21438;SDS011;10880;50.302;18.736;2023-08-17T05:53:55;1.52;;;1.42;;
21438;SDS011;10880;50.302;18.736;2023-08-17T05:56:23;1.60;;;1.50;;
21438;SDS011;10880;50.302;18.736;2023-08-17T05:58:50;1.70;;;1.60;;
21438;SDS011;10880;50.302;18.736;2023-08-17T06:01:17;1.77;;;1.67;;
21438;SDS011;10880;50.302;18.736;2023-08-17T06:03:44;4.23;;;1.50;;
21438;SDS011;10880;50.302;18.736;2023-08-17T06:06:11;1.70;;;1.60;;
21438;SDS011;10880;50.302;18.736;2023-08-17T06:08:38;2.20;;;1.70;;
21438;SDS011;10880;50.302;18.736;2023-08-17T06:11:04;1.93;;;1.70;;
21438;SDS011;10880;50.302;18.736;2023-08-17T06:13:31;1.90;;;1.80;;
21438;SDS011;10880;50.302;18.736;2023-08-17T06:15:58;2.00;;;1.83;;
21438;SDS011;10880;50.302;18.736;2023-08-17T06:18:24;2.13;;;1.92;;
21438;SDS011;10880;50.302;18.736;2023-08-17T06:20:51;1.75;;;1.65;;
21438;SDS011;10880;50.302;18.736;2023-08-17T06:23:19;1.70;;;1.60;;
21438;SDS011;10880;50.302;18.736;2023-08-17T06:25:49;1.90;;;1.80;;
21438;SDS011;10880;50.302;18.736;2023-08-17T06:28:17;2.03;;;1.90;;
21438;SDS011;10880;50.302;18.736;2023-08-17T06:30:44;2.55;;;2.00;;
21438;SDS011;10880;50.302;18.736;2023-08-17T06:33:11;2.45;;;2.08;;
21438;SDS011;10880;50.302;18.736;2023-08-17T06:35:37;2.10;;;1.92;;
21438;SDS011;10880;50.302;18.736;2023-08-17T06:38:04;2.67;;;2.20;;
21438;SDS011;10880;50.302;18.736;2023-08-17T06:40:30;2.13;;;1.92;;
21438;SDS011;10880;50.302;18.736;2023-08-17T06:42:56;2.20;;;2.00;;
21438;SDS011;10880;50.302;18.736;2023-08-17T06:45:23;2.63;;;2.38;;
21438;SDS011;10880;50.302;18.736;2023-08-17T06:47:51;1.92;;;1.83;;
21438;SDS011;10880;50.302;18.736;2023-08-17T06:50:18;2.70;;;2.37;;
21438;SDS011;10880;50.302;18.736;2023-08-17T06:52:45;2.65;;;2.45;;
21438;SDS011;10880;50.302;18.736;2023-08-17T06:55:12;2.28;;;2.08;;
21438;SDS011;10880;50.302;18.736;2023-08-17T06:57:39;2.28;;;2.10;;
21438;SDS011;10880;50.302;18.736;2023-08-17T07:00:05;2.60;;;2.40;;
21438;SDS011;10880;50.302;18.736;2023-08-17T07:02:33;2.60;;;2.15;;
21438;SDS011;10880;50.302;18.736;2023-08-17T07:05:01;2.40;;;2.20;;
21438;SDS011;10880;50.302;18.736;2023-08-17T07:07:29;3.05;;;2.15;;
21438;SDS011;10880;50.302;18.736;2023-08-17T07:10:01;2.47;;;2.27;;
21438;SDS011;10880;50.302;18.736;2023-08-17T07:12:28;2.92;;;2.10;;
21438;SDS011;10880;50.302;18.736;2023-08-17T07:14:57;2.88;;;2.58;;
21438;SDS011;10880;50.302;18.736;2023-08-17T07:17:23;3.22;;;2.88;;
21438;SDS011;10880;50.302;18.736;2023-08-17T07:19:51;2.60;;;2.40;;
21438;SDS011;10880;50.302;18.736;2023-08-17T07:22:20;2.80;;;2.33;;
21438;SDS011;10880;50.302;18.736;2023-08-17T07:24:48;2.40;;;2.20;;
21438;SDS011;10880;50.302;18.736;2023-08-17T07:27:14;3.55;;;2.70;;
21438;SDS011;10880;50.302;18.736;2023-08-17T07:29:41;2.80;;;2.35;;
21438;SDS011;10880;50.302;18.736;2023-08-17T07:32:08;2.65;;;2.45;;
21438;SDS011;10880;50.302;18.736;2023-08-17T07:34:36;2.60;;;2.40;;
21438;SDS011;10880;50.302;18.736;2023-08-17T07:37:05;3.42;;;2.50;;
21438;SDS011;10880;50.302;18.736;2023-08-17T07:39:32;2.10;;;2.00;;
21438;SDS011;10880;50.302;18.736;2023-08-17T07:41:59;2.60;;;2.40;;
21438;SDS011;10880;50.302;18.736;2023-08-17T07:44:26;2.50;;;2.20;;
21438;SDS011;10880;50.302;18.736;2023-08-17T07:46:55;5.10;;;2.40;;
21438;SDS011;10880;50.302;18.736;2023-08-17T07:49:21;2.78;;;2.20;;
21438;SDS011;10880;50.302;18.736;2023-08-17T07:51:49;2.30;;;2.10;;
21438;SDS011;10880;50.302;18.736;2023-08-17T07:54:17;2.20;;;2.00;;
21438;SDS011;10880;50.302;18.736;2023-08-17T07:56:49;2.63;;;2.20;;
21438;SDS011;10880;50.302;18.736;2023-08-17T07:59:16;3.15;;;2.40;;
21438;SDS011;10880;50.302;18.736;2023-08-17T08:01:42;3.63;;;2.50;;
21438;SDS011;10880;50.302;18.736;2023-08-17T08:04:08;2.33;;;2.13;;
21438;SDS011;10880;50.302;18.736;2023-08-17T08:06:37;3.10;;;2.80;;
21438;SDS011;10880;50.302;18.736;2023-08-17T08:09:04;3.10;;;2.80;;
21438;SDS011;10880;50.302;18.736;2023-08-17T08:11:31;2.95;;;2.60;;
21438;SDS011;10880;50.302;18.736;2023-08-17T08:13:57;2.70;;;2.50;;
21438;SDS011;10880;50.302;18.736;2023-08-17T08:16:23;2.97;;;2.70;;
21438;SDS011;10880;50.302;18.736;2023-08-17T08:18:50;3.78;;;2.55;;
21438;SDS011;10880;50.302;18.736;2023-08-17T08:21:16;2.40;;;2.20;;
21438;SDS011;10880;50.302;18.736;2023-08-17T08:23:42;2.63;;;2.22;;
21438;SDS011;10880;50.302;18.736;2023-08-17T08:26:14;2.20;;;2.05;;
21438;SDS011;10880;50.302;18.736;2023-08-17T08:28:40;2.45;;;2.25;;
21438;SDS011;10880;50.302;18.736;2023-08-17T08:31:07;2.33;;;2.13;;
21438;SDS011;10880;50.302;18.736;2023-08-17T08:33:35;2.38;;;2.17;;
21438;SDS011;10880;50.302;18.736;2023-08-17T08:36:01;2.38;;;2.20;;
21438;SDS011;10880;50.302;18.736;2023-08-17T08:38:28;2.40;;;2.20;;
21438;SDS011;10880;50.302;18.736;2023-08-17T08:40:56;2.40;;;2.20;;
21438;SDS011;10880;50.302;18.736;2023-08-17T08:43:22;3.97;;;2.50;;
21438;SDS011;10880;50.302;18.736;2023-08-17T08:45:52;3.22;;;2.50;;
21438;SDS011;10880;50.302;18.736;2023-08-17T08:48:26;2.90;;;2.58;;
21438;SDS011;10880;50.302;18.736;2023-08-17T08:50:56;2.78;;;2.58;;
21438;SDS011;10880;50.302;18.736;2023-08-17T08:53:37;3.45;;;2.30;;
21438;SDS011;10880;50.302;18.736;2023-08-17T08:56:07;2.33;;;2.13;;
21438;SDS011;10880;50.302;18.736;2023-08-17T08:58:41;2.78;;;2.58;;
21438;SDS011;10880;50.302;18.736;2023-08-17T09:01:09;2.67;;;2.47;;
21438;SDS011;10880;50.302;18.736;2023-08-17T09:03:37;2.28;;;2.15;;
21438;SDS011;10880;50.302;18.736;2023-08-17T09:06:06;2.35;;;2.15;;
21438;SDS011;10880;50.302;18.736;2023-08-17T09:08:34;2.58;;;2.38;;
21438;SDS011;10880;50.302;18.736;2023-08-17T09:11:01;2.40;;;2.20;;
21438;SDS011;10880;50.302;18.736;2023-08-17T09:13:30;2.50;;;2.30;;
21438;SDS011;10880;50.302;18.736;2023-08-17T09:15:59;2.58;;;2.38;;
21438;SDS011;10880;50.302;18.736;2023-08-17T09:18:28;2.03;;;1.92;;
21438;SDS011;10880;50.302;18.736;2023-08-17T09:20:55;2.00;;;1.90;;
21438;SDS011;10880;50.302;18.736;2023-08-17T09:23:23;2.35;;;2.15;;
21438;SDS011;10880;50.302;18.736;2023-08-17T09:25:50;2.20;;;2.03;;
21438;SDS011;10880;50.302;18.736;2023-08-17T09:28:26;2.60;;;2.40;;
21438;SDS011;10880;50.302;18.736;2023-08-17T09:33:40;2.30;;;2.10;;
21438;SDS011;10880;50.302;18.736;2023-08-17T09:36:09;3.13;;;1.88;;
21438;SDS011;10880;50.302;18.736;2023-08-17T09:38:37;2.00;;;1.88;;
21438;SDS011;10880;50.302;18.736;2023-08-17T09:41:05;2.20;;;2.03;;
21438;SDS011;10880;50.302;18.736;2023-08-17T09:43:32;2.38;;;2.20;;
21438;SDS011;10880;50.302;18.736;2023-08-17T09:46:00;2.10;;;2.00;;
21438;SDS011;10880;50.302;18.736;2023-08-17T09:48:34;2.30;;;2.10;;
21438;SDS011;10880;50.302;18.736;2023-08-17T09:51:02;2.80;;;2.28;;
21438;SDS011;10880;50.302;18.736;2023-08-17T09:53:34;2.05;;;1.90;;
21438;SDS011;10880;50.302;18.736;2023-08-17T09:56:03;2.70;;;2.20;;
21438;SDS011;10880;50.302;18.736;2023-08-17T09:58:33;2.13;;;2.00;;
21438;SDS011;10880;50.302;18.736;2023-08-17T10:01:02;2.08;;;1.88;;
21438;SDS011;10880;50.302;18.736;2023-08-17T10:03:34;2.03;;;1.80;;
21438;SDS011;10880;50.302;18.736;2023-08-17T10:06:05;1.95;;;1.85;;
21438;SDS011;10880;50.302;18.736;2023-08-17T10:08:45;1.90;;;1.80;;
21438;SDS011;10880;50.302;18.736;2023-08-17T10:11:15;2.42;;;2.03;;
21438;SDS011;10880;50.302;18.736;2023-08-17T10:13:48;1.83;;;1.73;;
21438;SDS011;10880;50.302;18.736;2023-08-17T10:16:26;1.83;;;1.73;;
21438;SDS011;10880;50.302;18.736;2023-08-17T10:21:40;1.70;;;1.60;;
21438;SDS011;10880;50.302;18.736;2023-08-17T10:24:19;1.98;;;1.85;;
21438;SDS011;10880;50.302;18.736;2023-08-17T10:26:47;2.67;;;1.83;;
21438;SDS011;10880;50.302;18.736;2023-08-17T10:29:14;3.08;;;1.83;;
21438;SDS011;10880;50.302;18.736;2023-08-17T10:31:43;2.90;;;2.05;;
21438;SDS011;10880;50.302;18.736;2023-08-17T10:34:13;2.25;;;2.10;;
21438;SDS011;10880;50.302;18.736;2023-08-17T10:36:41;2.33;;;2.13;;
21438;SDS011;10880;50.302;18.736;2023-08-17T10:39:18;1.88;;;1.77;;
21438;SDS011;10880;50.302;18.736;2023-08-17T10:41:49;1.92;;;1.83;;
21438;SDS011;10880;50.302;18.736;2023-08-17T10:47:26;2.15;;;2.00;;
21438;SDS011;10880;50.302;18.736;2023-08-17T10:52:33;2.38;;;2.17;;
21438;SDS011;10880;50.302;18.736;2023-08-17T10:55:02;2.38;;;2.17;;
21438;SDS011;10880;50.302;18.736;2023-08-17T10:57:40;2.30;;;2.10;;
21438;SDS011;10880;50.302;18.736;2023-08-17T11:02:59;2.47;;;2.28;;
21438;SDS011;10880;50.302;18.736;2023-08-17T11:05:46;2.53;;;2.33;;
21438;SDS011;10880;50.302;18.736;2023-08-17T11:08:19;2.53;;;2.17;;
21438;SDS011;10880;50.302;18.736;2023-08-17T11:11:03;2.00;;;1.90;;
21438;SDS011;10880;50.302;18.736;2023-08-17T11:13:30;2.22;;;2.03;;
21438;SDS011;10880;50.302;18.736;2023-08-17T11:16:02;2.28;;;1.85;;
21438;SDS011;10880;50.302;18.736;2023-08-17T11:18:32;2.30;;;2.10;;
21438;SDS011;10880;50.302;18.736;2023-08-17T11:20:59;3.13;;;2.80;;
21438;SDS011;10880;50.302;18.736;2023-08-17T11:23:28;2.92;;;2.60;;
21438;SDS011;10880;50.302;18.736;2023-08-17T11:25:56;2.75;;;2.55;;
21438;SDS011;10880;50.302;18.736;2023-08-17T11:28:23;2.35;;;1.98;;
21438;SDS011;10880;50.302;18.736;2023-08-17T11:30:56;2.28;;;2.08;;
21438;SDS011;10880;50.302;18.736;2023-08-17T11:33:27;2.28;;;2.08;;
21438;SDS011;10880;50.302;18.736;2023-08-17T11:35:54;2.20;;;2.00;;
21438;SDS011;10880;50.302;18.736;2023-08-17T11:38:21;2.28;;;2.08;;
21438;SDS011;10880;50.302;18.736;2023-08-17T11:40:49;2.60;;;2.40;;
21438;SDS011;10880;50.302;18.736;2023-08-17T11:43:16;2.72;;;2.30;;
21438;SDS011;10880;50.302;18.736;2023-08-17T11:45:43;2.15;;;1.95;;
21438;SDS011;10880;50.302;18.736;2023-08-17T11:48:10;2.22;;;1.98;;
21438;SDS011;10880;50.302;18.736;2023-08-17T11:50:37;2.40;;;2.20;;
21438;SDS011;10880;50.302;18.736;2023-08-17T11:53:05;2.00;;;1.80;;
21438;SDS011;10880;50.302;18.736;2023-08-17T11:55:31;2.72;;;2.38;;
21438;SDS011;10880;50.302;18.736;2023-08-17T11:57:58;10.75;;;4.07;;
21438;SDS011;10880;50.302;18.736;2023-08-17T12:00:25;5.07;;;3.30;;
21438;SDS011;10880;50.302;18.736;2023-08-17T12:02:52;2.80;;;2.60;;
21438;SDS011;10880;50.302;18.736;2023-08-17T12:05:20;2.35;;;2.15;;
21438;SDS011;10880;50.302;18.736;2023-08-17T12:07:55;1.92;;;1.70;;
21438;SDS011;10880;50.302;18.736;2023-08-17T12:10:21;1.23;;;1.20;;
21438;SDS011;10880;50.302;18.736;2023-08-17T12:12:48;1.75;;;1.30;;
21438;SDS011;10880;50.302;18.736;2023-08-17T12:15:17;2.28;;;1.23;;
21438;SDS011;10880;50.302;18.736;2023-08-17T12:17:47;1.92;;;1.00;;
21438;SDS011;10880;50.302;18.736;2023-08-17T12:20:20;1.20;;;1.10;;
21438;SDS011;10880;50.302;18.736;2023-08-17T12:22:48;1.33;;;1.20;;
21438;SDS011;10880;50.302;18.736;2023-08-17T12:25:20;1.30;;;1.20;;
21438;SDS011;10880;50.302;18.736;2023-08-17T12:27:48;1.42;;;1.30;;
21438;SDS011;10880;50.302;18.736;2023-08-17T12:30:30;1.40;;;1.30;;
21438;SDS011;10880;50.302;18.736;2023-08-17T12:32:58;1.08;;;1.08;;
21438;SDS011;10880;50.302;18.736;2023-08-17T12:35:25;1.52;;;1.23;;
21438;SDS011;10880;50.302;18.736;2023-08-17T12:37:52;1.20;;;1.10;;
21438;SDS011;10880;50.302;18.736;2023-08-17T12:40:19;1.60;;;1.45;;
21438;SDS011;10880;50.302;18.736;2023-08-17T12:42:50;1.38;;;1.27;;
21438;SDS011;10880;50.302;18.736;2023-08-17T12:45:19;1.70;;;1.58;;
21438;SDS011;10880;50.302;18.736;2023-08-17T12:47:48;1.92;;;1.50;;
21438;SDS011;10880;50.302;18.736;2023-08-17T12:50:18;1.60;;;1.50;;
21438;SDS011;10880;50.302;18.736;2023-08-17T12:52:44;1.70;;;1.60;;
21438;SDS011;10880;50.302;18.736;2023-08-17T12:55:12;1.65;;;1.55;;
21438;SDS011;10880;50.302;18.736;2023-08-17T12:57:39;1.60;;;1.40;;
21438;SDS011;10880;50.302;18.736;2023-08-17T13:00:06;1.80;;;1.67;;
21438;SDS011;10880;50.302;18.736;2023-08-17T13:02:34;2.03;;;1.63;;
21438;SDS011;10880;50.302;18.736;2023-08-17T13:05:01;1.80;;;1.50;;
21438;SDS011;10880;50.302;18.736;2023-08-17T13:07:28;1.75;;;1.55;;
21438;SDS011;10880;50.302;18.736;2023-08-17T13:09:54;1.48;;;1.38;;
21438;SDS011;10880;50.302;18.736;2023-08-17T13:12:21;1.90;;;1.60;;
21438;SDS011;10880;50.302;18.736;2023-08-17T13:14:50;1.60;;;1.40;;
21438;SDS011;10880;50.302;18.736;2023-08-17T13:17:17;1.70;;;1.60;;
21438;SDS011;10880;50.302;18.736;2023-08-17T13:19:47;1.70;;;1.60;;
21438;SDS011;10880;50.302;18.736;2023-08-17T13:22:13;1.95;;;1.70;;
21438;SDS011;10880;50.302;18.736;2023-08-17T13:24:40;1.83;;;1.65;;
21438;SDS011;10880;50.302;18.736;2023-08-17T13:27:07;1.67;;;1.40;;
21438;SDS011;10880;50.302;18.736;2023-08-17T13:29:36;2.25;;;1.60;;
21438;SDS011;10880;50.302;18.736;2023-08-17T13:32:04;2.28;;;1.60;;
21438;SDS011;10880;50.302;18.736;2023-08-17T13:34:32;1.80;;;1.70;;
21438;SDS011;10880;50.302;18.736;2023-08-17T13:36:59;2.42;;;2.10;;
21438;SDS011;10880;50.302;18.736;2023-08-17T13:39:32;2.38;;;1.65;;
21438;SDS011;10880;50.302;18.736;2023-08-17T13:41:58;2.72;;;1.83;;
21438;SDS011;10880;50.302;18.736;2023-08-17T13:44:26;1.67;;;1.58;;
21438;SDS011;10880;50.302;18.736;2023-08-17T13:46:53;2.58;;;1.83;;
21438;SDS011;10880;50.302;18.736;2023-08-17T13:49:21;3.20;;;1.95;;
21438;SDS011;10880;50.302;18.736;2023-08-17T13:51:47;2.05;;;1.85;;
21438;SDS011;10880;50.302;18.736;2023-08-17T13:54:16;2.03;;;1.65;;
21438;SDS011;10880;50.302;18.736;2023-08-17T13:56:42;2.47;;;1.70;;
21438;SDS011;10880;50.302;18.736;2023-08-17T13:59:09;2.17;;;1.90;;
21438;SDS011;10880;50.302;18.736;2023-08-17T14:01:36;1.88;;;1.75;;
21438;SDS011;10880;50.302;18.736;2023-08-17T14:04:02;2.25;;;1.95;;
21438;SDS011;10880;50.302;18.736;2023-08-17T14:06:30;2.40;;;2.00;;
21438;SDS011;10880;50.302;18.736;2023-08-17T14:08:57;1.98;;;1.88;;
21438;SDS011;10880;50.302;18.736;2023-08-17T14:11:24;2.15;;;1.92;;
21438;SDS011;10880;50.302;18.736;2023-08-17T14:13:51;2.55;;;2.20;;
21438;SDS011;10880;50.302;18.736;2023-08-17T14:16:17;2.70;;;1.92;;
21438;SDS011;10880;50.302;18.736;2023-08-17T14:18:44;1.60;;;1.50;;
21438;SDS011;10880;50.302;18.736;2023-08-17T14:21:13;2.40;;;1.75;;
21438;SDS011;10880;50.302;18.736;2023-08-17T14:23:42;1.67;;;1.58;;
21438;SDS011;10880;50.302;18.736;2023-08-17T14:26:10;2.08;;;1.98;;
21438;SDS011;10880;50.302;18.736;2023-08-17T14:28:36;1.83;;;1.73;;
21438;SDS011;10880;50.302;18.736;2023-08-17T14:31:03;2.20;;;1.98;;
21438;SDS011;10880;50.302;18.736;2023-08-17T14:33:29;2.25;;;2.05;;
21438;SDS011;10880;50.302;18.736;2023-08-17T14:35:58;2.10;;;1.90;;
21438;SDS011;10880;50.302;18.736;2023-08-17T14:38:27;1.70;;;1.60;;
21438;SDS011;10880;50.302;18.736;2023-08-17T14:40:53;1.75;;;1.65;;
21438;SDS011;10880;50.302;18.736;2023-08-17T14:43:20;2.10;;;1.63;;
21438;SDS011;10880;50.302;18.736;2023-08-17T14:45:47;1.70;;;1.60;;
21438;SDS011;10880;50.302;18.736;2023-08-17T14:48:17;2.05;;;1.88;;
21438;SDS011;10880;50.302;18.736;2023-08-17T14:50:43;1.98;;;1.75;;
21438;SDS011;10880;50.302;18.736;2023-08-17T14:53:10;1.60;;;1.50;;
21438;SDS011;10880;50.302;18.736;2023-08-17T14:55:36;2.08;;;1.70;;